RYR68QL EHEH-LZIB
Flight info
| Callsign | RYR68QL |
|---|---|
| Flight time | 1h 25m |
| Altitude | 37000 |
| Route | VELNI Y869 SUMOP L179 MEVEL Z44 HMM L620 EXOBA DCT NOMKA DCT TALEG L620 PIKIB DCT OMELO DCT EVIKU DCT BNO DCT ODNEM A4 BERVA |
| Aircraft | B738/M-SDE2E3FGHIRWXY/LB1 |
Departure
| Time | 2026-05-04 10:08 |
|---|---|
| Airport | Eindhoven Airport (EHEH) |
Arrival
| Time | 2026-05-04 11:33 |
|---|---|
| Airport | M. R. Štefánik Airport (LZIB) |
| Time | Latitude | Longitude | Altitude | Speed | Heading |
|---|---|---|---|---|---|
| 2026-05-04 09:54 | 51.45686 | 5.38854 | 74 ft | 0 kts | 127° |
| 2026-05-04 09:58 | 51.45687 | 5.38901 | 74 ft | 0 kts | 125° |
| 2026-05-04 09:58 | 51.45698 | 5.38883 | 74 ft | 0 kts | 125° |
| 2026-05-04 09:58 | 51.45684 | 5.38868 | 74 ft | 0 kts | 125° |
| 2026-05-04 10:02 | 51.45700 | 5.38731 | 74 ft | 0 kts | 35° |
| 2026-05-04 10:04 | 51.45701 | 5.38732 | 74 ft | 1 kts | 35° |
| 2026-05-04 10:05 | 51.45745 | 5.38780 | 71 ft | 14 kts | 35° |
| 2026-05-04 10:05 | 51.45839 | 5.38886 | 74 ft | 17 kts | 35° |
| 2026-05-04 10:05 | 51.45938 | 5.38984 | 72 ft | 17 kts | 13° |
| 2026-05-04 10:05 | 51.46006 | 5.38892 | 74 ft | 16 kts | 282° |
| 2026-05-04 10:06 | 51.46070 | 5.38753 | 71 ft | 15 kts | 303° |
| 2026-05-04 10:06 | 51.46050 | 5.38615 | 71 ft | 15 kts | 216° |
| 2026-05-04 10:06 | 51.45773 | 5.38303 | 73 ft | 97 kts | 214° |
| 2026-05-04 10:08 | 51.38742 | 5.31754 | 4052 ft | 233 kts | 172° |
| 2026-05-04 10:08 | 51.37318 | 5.32796 | 4989 ft | 233 kts | 135° |
| 2026-05-04 10:08 | 51.36476 | 5.35143 | 5455 ft | 258 kts | 100° |
| 2026-05-04 10:08 | 51.36506 | 5.38070 | 6192 ft | 269 kts | 86° |
| 2026-05-04 10:09 | 51.36667 | 5.41090 | 7050 ft | 275 kts | 87° |
| 2026-05-04 10:09 | 51.36769 | 5.44148 | 7896 ft | 282 kts | 89° |
| 2026-05-04 10:09 | 51.36814 | 5.47365 | 8758 ft | 288 kts | 91° |
| 2026-05-04 10:09 | 51.36826 | 5.50555 | 9568 ft | 294 kts | 91° |
| 2026-05-04 10:10 | 51.36824 | 5.53907 | 10404 ft | 301 kts | 91° |
| 2026-05-04 10:10 | 51.36819 | 5.57335 | 10694 ft | 327 kts | 91° |
| 2026-05-04 10:10 | 51.36808 | 5.61133 | 10901 ft | 354 kts | 91° |
| 2026-05-04 10:10 | 51.36871 | 5.65182 | 11231 ft | 373 kts | 83° |
| 2026-05-04 10:11 | 51.37670 | 5.69170 | 11917 ft | 381 kts | 65° |
| 2026-05-04 10:11 | 51.38812 | 5.73025 | 12705 ft | 385 kts | 64° |
| 2026-05-04 10:11 | 51.39986 | 5.76901 | 13429 ft | 391 kts | 64° |
| 2026-05-04 10:11 | 51.41180 | 5.80849 | 14160 ft | 396 kts | 64° |
| 2026-05-04 10:12 | 51.42378 | 5.84848 | 14891 ft | 400 kts | 65° |
| 2026-05-04 10:12 | 51.43577 | 5.88888 | 15573 ft | 405 kts | 65° |
| 2026-05-04 10:12 | 51.44790 | 5.93005 | 16246 ft | 409 kts | 65° |
| 2026-05-04 10:12 | 51.46005 | 5.97145 | 16902 ft | 414 kts | 65° |
| 2026-05-04 10:13 | 51.47234 | 6.01345 | 17548 ft | 418 kts | 65° |
| 2026-05-04 10:13 | 51.48475 | 6.05594 | 18134 ft | 424 kts | 66° |
| 2026-05-04 10:13 | 51.49729 | 6.09891 | 18719 ft | 428 kts | 66° |
| 2026-05-04 10:13 | 51.50998 | 6.14251 | 19308 ft | 432 kts | 66° |
| 2026-05-04 10:14 | 51.52272 | 6.18651 | 19861 ft | 437 kts | 67° |
| 2026-05-04 10:14 | 51.53218 | 6.23286 | 20373 ft | 440 kts | 81° |
| 2026-05-04 10:16 | 51.57282 | 6.58021 | 23802 ft | 468 kts | 69° |
| 2026-05-04 10:16 | 51.58731 | 6.62727 | 24265 ft | 472 kts | 59° |
| 2026-05-04 10:16 | 51.60622 | 6.67066 | 24674 ft | 476 kts | 52° |
| 2026-05-04 10:16 | 51.62668 | 6.71278 | 25087 ft | 479 kts | 52° |
| 2026-05-04 10:17 | 51.64712 | 6.75536 | 25447 ft | 483 kts | 53° |
| 2026-05-04 10:17 | 51.66746 | 6.79883 | 25810 ft | 487 kts | 53° |
| 2026-05-04 10:19 | 51.80368 | 7.09695 | 28136 ft | 505 kts | 54° |
| 2026-05-04 10:19 | 51.82425 | 7.14290 | 28435 ft | 508 kts | 57° |
| 2026-05-04 10:19 | 51.84088 | 7.19294 | 28694 ft | 509 kts | 69° |
| 2026-05-04 10:19 | 51.85180 | 7.24724 | 29005 ft | 509 kts | 79° |
| 2026-05-04 10:20 | 51.85705 | 7.30365 | 29298 ft | 507 kts | 91° |
| 2026-05-04 10:20 | 51.85731 | 7.36085 | 29622 ft | 506 kts | 94° |
| 2026-05-04 10:20 | 51.85681 | 7.41769 | 29966 ft | 506 kts | 94° |
| 2026-05-04 10:20 | 51.85640 | 7.47471 | 30338 ft | 506 kts | 94° |
| 2026-05-04 10:21 | 51.85632 | 7.53138 | 30706 ft | 506 kts | 93° |
| 2026-05-04 10:21 | 51.85651 | 7.58838 | 31087 ft | 505 kts | 93° |
| 2026-05-04 10:21 | 51.85675 | 7.64509 | 31462 ft | 504 kts | 93° |
| 2026-05-04 10:21 | 51.85627 | 7.70173 | 31823 ft | 501 kts | 97° |
| 2026-05-04 10:22 | 51.84354 | 7.81143 | 32490 ft | 495 kts | 108° |
| 2026-05-04 10:22 | 51.83522 | 7.86529 | 32875 ft | 492 kts | 109° |
| 2026-05-04 10:22 | 51.82704 | 7.91824 | 33219 ft | 492 kts | 108° |
| 2026-05-04 10:23 | 51.81885 | 7.97241 | 33534 ft | 492 kts | 108° |
| 2026-05-04 10:23 | 51.81089 | 8.02628 | 33841 ft | 491 kts | 108° |
| 2026-05-04 10:25 | 51.75655 | 8.39945 | 35855 ft | 487 kts | 107° |
| 2026-05-04 10:25 | 51.74908 | 8.45343 | 36114 ft | 487 kts | 107° |
| 2026-05-04 10:25 | 51.74186 | 8.50616 | 36387 ft | 486 kts | 107° |
| 2026-05-04 10:25 | 51.73449 | 8.55997 | 36625 ft | 486 kts | 106° |
| 2026-05-04 10:26 | 51.72717 | 8.61323 | 36869 ft | 485 kts | 106° |
| 2026-05-04 10:26 | 51.71998 | 8.66522 | 37280 ft | 480 kts | 107° |
| 2026-05-04 10:26 | 51.71271 | 8.71754 | 37707 ft | 474 kts | 107° |
| 2026-05-04 10:26 | 51.70548 | 8.76916 | 37982 ft | 473 kts | 107° |
| 2026-05-04 10:27 | 51.69816 | 8.82103 | 37986 ft | 477 kts | 107° |
| 2026-05-04 10:27 | 51.68334 | 8.92553 | 38000 ft | 478 kts | 107° |
| 2026-05-04 10:28 | 51.66852 | 9.02957 | 37996 ft | 475 kts | 107° |
| 2026-05-04 10:28 | 51.65370 | 9.13292 | 37998 ft | 472 kts | 107° |
| 2026-05-04 10:29 | 51.63885 | 9.23571 | 38010 ft | 470 kts | 107° |
| 2026-05-04 10:29 | 51.62394 | 9.33823 | 38010 ft | 470 kts | 107° |
| 2026-05-04 10:30 | 51.60898 | 9.44036 | 38026 ft | 469 kts | 107° |
| 2026-05-04 10:30 | 51.59389 | 9.54277 | 37994 ft | 471 kts | 107° |
| 2026-05-04 10:31 | 51.57866 | 9.64545 | 38010 ft | 472 kts | 107° |
| 2026-05-04 10:32 | 51.52442 | 10.00605 | 38005 ft | 476 kts | 108° |
| 2026-05-04 10:33 | 51.50864 | 10.10943 | 37995 ft | 477 kts | 108° |
| 2026-05-04 10:33 | 51.49273 | 10.21298 | 38004 ft | 477 kts | 108° |
| 2026-05-04 10:34 | 51.47681 | 10.31618 | 38000 ft | 477 kts | 108° |
| 2026-05-04 10:34 | 51.46080 | 10.41959 | 37998 ft | 476 kts | 108° |
| 2026-05-04 10:35 | 51.44471 | 10.52238 | 38009 ft | 475 kts | 108° |
| 2026-05-04 10:35 | 51.42852 | 10.62412 | 38011 ft | 474 kts | 108° |
| 2026-05-04 10:36 | 51.41217 | 10.72624 | 38005 ft | 473 kts | 108° |
| 2026-05-04 10:36 | 51.39588 | 10.82793 | 38016 ft | 472 kts | 108° |
| 2026-05-04 10:37 | 51.37952 | 10.92952 | 38004 ft | 471 kts | 108° |
| 2026-05-04 10:37 | 51.36312 | 11.03081 | 38009 ft | 470 kts | 108° |
| 2026-05-04 10:39 | 51.30531 | 11.38308 | 38009 ft | 467 kts | 108° |
| 2026-05-04 10:40 | 51.28864 | 11.48330 | 38016 ft | 467 kts | 108° |
| 2026-05-04 10:40 | 51.27197 | 11.58292 | 38019 ft | 467 kts | 108° |
| 2026-05-04 10:41 | 51.25512 | 11.68309 | 38022 ft | 468 kts | 108° |
| 2026-05-04 10:41 | 51.23815 | 11.78338 | 38017 ft | 468 kts | 108° |
| 2026-05-04 10:42 | 51.22108 | 11.88367 | 38018 ft | 468 kts | 109° |
| 2026-05-04 10:42 | 51.20395 | 11.98376 | 38020 ft | 469 kts | 109° |
| 2026-05-04 10:43 | 51.18669 | 12.08408 | 38018 ft | 469 kts | 109° |
| 2026-05-04 10:45 | 51.11692 | 12.48421 | 38017 ft | 468 kts | 109° |
| 2026-05-04 10:45 | 51.09932 | 12.58392 | 38016 ft | 468 kts | 109° |
| 2026-05-04 10:46 | 51.08147 | 12.68344 | 38019 ft | 467 kts | 109° |
| 2026-05-04 10:46 | 51.06331 | 12.78266 | 38016 ft | 467 kts | 110° |
| 2026-05-04 10:47 | 51.04514 | 12.88177 | 38022 ft | 467 kts | 110° |
| 2026-05-04 10:47 | 51.02695 | 12.98089 | 38020 ft | 467 kts | 109° |
| 2026-05-04 10:49 | 50.95400 | 13.37595 | 38004 ft | 467 kts | 109° |
| 2026-05-04 10:50 | 50.93663 | 13.47515 | 37998 ft | 466 kts | 109° |
| 2026-05-04 10:52 | 50.86316 | 13.86744 | 38003 ft | 465 kts | 110° |
| 2026-05-04 10:52 | 50.84294 | 13.96333 | 37994 ft | 461 kts | 120° |
| 2026-05-04 10:54 | 50.69150 | 14.21168 | 38011 ft | 449 kts | 142° |
| 2026-05-04 10:54 | 50.66834 | 14.24476 | 38010 ft | 450 kts | 142° |
| 2026-05-04 10:56 | 50.48235 | 14.51053 | 38016 ft | 453 kts | 142° |
| 2026-05-04 10:57 | 50.43730 | 14.57879 | 38024 ft | 455 kts | 137° |
| 2026-05-04 10:57 | 50.39442 | 14.65209 | 38024 ft | 457 kts | 136° |
| 2026-05-04 10:58 | 50.35179 | 14.72589 | 38019 ft | 457 kts | 136° |
| 2026-05-04 10:58 | 50.30892 | 14.79928 | 38012 ft | 457 kts | 136° |
| 2026-05-04 10:59 | 50.26590 | 14.87225 | 38025 ft | 456 kts | 136° |
| 2026-05-04 10:59 | 50.22273 | 14.94511 | 38017 ft | 456 kts | 136° |
| 2026-05-04 11:00 | 50.17960 | 15.01771 | 38016 ft | 456 kts | 136° |
| 2026-05-04 11:02 | 50.00719 | 15.30589 | 38019 ft | 454 kts | 136° |
| 2026-05-04 11:05 | 49.68967 | 15.82830 | 38028 ft | 456 kts | 136° |
| 2026-05-04 11:06 | 49.64606 | 15.89922 | 38031 ft | 456 kts | 136° |
| 2026-05-04 11:06 | 49.60240 | 15.97006 | 38036 ft | 455 kts | 136° |
| 2026-05-04 11:08 | 49.44947 | 16.21654 | 37882 ft | 458 kts | 136° |
| 2026-05-04 11:10 | 49.29443 | 16.46413 | 33319 ft | 463 kts | 135° |
| 2026-05-04 11:12 | 49.13682 | 16.71372 | 28211 ft | 458 kts | 135° |
| 2026-05-04 11:12 | 49.11522 | 16.74829 | 27623 ft | 453 kts | 134° |
| 2026-05-04 11:12 | 49.09364 | 16.78303 | 27023 ft | 449 kts | 134° |
| 2026-05-04 11:12 | 49.07235 | 16.81738 | 26412 ft | 445 kts | 134° |
| 2026-05-04 11:13 | 49.05119 | 16.85145 | 25823 ft | 441 kts | 134° |
| 2026-05-04 11:13 | 49.03016 | 16.88525 | 25216 ft | 437 kts | 134° |
| 2026-05-04 11:13 | 49.00928 | 16.91870 | 24610 ft | 433 kts | 134° |
| 2026-05-04 11:13 | 48.98859 | 16.95182 | 24019 ft | 429 kts | 134° |
| 2026-05-04 11:14 | 48.96814 | 16.98456 | 23426 ft | 425 kts | 134° |
| 2026-05-04 11:14 | 48.94785 | 17.01695 | 22836 ft | 421 kts | 135° |
| 2026-05-04 11:14 | 48.92766 | 17.04909 | 22247 ft | 417 kts | 135° |
| 2026-05-04 11:16 | 48.79184 | 17.26525 | 18270 ft | 392 kts | 135° |
| 2026-05-04 11:16 | 48.77308 | 17.29516 | 17711 ft | 389 kts | 135° |
| 2026-05-04 11:16 | 48.75456 | 17.32466 | 17154 ft | 385 kts | 135° |
| 2026-05-04 11:17 | 48.73613 | 17.35393 | 16604 ft | 382 kts | 135° |
| 2026-05-04 11:17 | 48.71786 | 17.38286 | 16055 ft | 379 kts | 135° |
| 2026-05-04 11:19 | 48.59386 | 17.57774 | 12780 ft | 350 kts | 136° |
| 2026-05-04 11:19 | 48.57664 | 17.60347 | 12592 ft | 349 kts | 136° |
| 2026-05-04 11:19 | 48.55842 | 17.62811 | 12374 ft | 354 kts | 148° |
| 2026-05-04 11:19 | 48.53611 | 17.64374 | 12211 ft | 354 kts | 161° |
| 2026-05-04 11:20 | 48.51284 | 17.65589 | 12006 ft | 353 kts | 162° |
| 2026-05-04 11:20 | 48.49037 | 17.66723 | 11815 ft | 351 kts | 162° |
| 2026-05-04 11:20 | 48.46652 | 17.67937 | 11604 ft | 350 kts | 162° |
| 2026-05-04 11:20 | 48.44374 | 17.69112 | 11413 ft | 348 kts | 163° |
| 2026-05-04 11:22 | 48.28528 | 17.67681 | 8453 ft | 320 kts | 188° |
| 2026-05-04 11:22 | 48.26321 | 17.67298 | 7995 ft | 319 kts | 188° |
| 2026-05-04 11:23 | 48.24128 | 17.66923 | 7559 ft | 317 kts | 188° |
| 2026-05-04 11:23 | 48.21938 | 17.66547 | 7108 ft | 315 kts | 188° |
| 2026-05-04 11:24 | 48.09094 | 17.64356 | 4405 ft | 305 kts | 187° |
| 2026-05-04 11:25 | 48.06993 | 17.63998 | 4006 ft | 303 kts | 187° |
| 2026-05-04 11:25 | 48.04894 | 17.63654 | 3569 ft | 303 kts | 186° |
| 2026-05-04 11:25 | 48.02797 | 17.63298 | 3239 ft | 302 kts | 187° |
| 2026-05-04 11:26 | 47.98931 | 17.61672 | 2865 ft | 288 kts | 221° |
| 2026-05-04 11:27 | 48.01523 | 17.45474 | 3166 ft | 214 kts | 313° |
| 2026-05-04 11:28 | 48.02477 | 17.43986 | 3137 ft | 195 kts | 313° |
| 2026-05-04 11:28 | 48.03404 | 17.42556 | 3165 ft | 193 kts | 312° |
| 2026-05-04 11:28 | 48.04313 | 17.41136 | 3210 ft | 188 kts | 311° |
| 2026-05-04 11:28 | 48.05203 | 17.39704 | 3191 ft | 184 kts | 312° |
| 2026-05-04 11:29 | 48.06103 | 17.38310 | 3129 ft | 188 kts | 313° |
| 2026-05-04 11:29 | 48.06996 | 17.36913 | 2945 ft | 185 kts | 313° |
| 2026-05-04 11:29 | 48.07869 | 17.35527 | 2642 ft | 178 kts | 311° |
| 2026-05-04 11:29 | 48.08702 | 17.34236 | 2470 ft | 171 kts | 313° |
| 2026-05-04 11:31 | 48.14194 | 17.25675 | 940 ft | 156 kts | 315° |
| 2026-05-04 11:33 | 48.16963 | 17.20740 | 441 ft | 23 kts | 229° |
| 2026-05-04 11:33 | 48.16851 | 17.20574 | 442 ft | 22 kts | 224° |
| 2026-05-04 11:33 | 48.16741 | 17.20415 | 442 ft | 22 kts | 234° |
| 2026-05-04 11:34 | 48.16804 | 17.20240 | 442 ft | 21 kts | 308° |
| 2026-05-04 11:34 | 48.16896 | 17.20139 | 442 ft | 12 kts | 319° |
| 2026-05-04 11:34 | 48.16919 | 17.20107 | 442 ft | 0 kts | 317° |